Time;durP1;ratioP1;P1;durP2;ratioP2;P2;SDS_P1;SDS_P2;PMS_P1;PMS_P2;Temp;Humidity;BMP_temperature;BMP_pressure;BME280_temperature;BME280_humidity;BME280_pressure;Samples;Min_cycle;Max_cycle;Signal;HPM_P1;HPM_P2
2022/10/02 00:00:24;;;;;;;12.73;1.90;;;;;;;24.22;43.05;101196.66;2106044;28;20079;-75
2022/10/02 00:01:52;;;;;;;12.05;2.10;;;;;;;24.25;43.13;101194.81;2089324;28;20429;-74
2022/10/02 00:03:21;;;;;;;12.52;1.95;;;;;;;24.30;42.64;101195.53;2094665;28;20143;-74
2022/10/02 00:04:52;;;;;;;15.35;2.90;;;;;;;24.35;42.17;101189.03;2095499;28;20048;-74
2022/10/02 00:06:20;;;;;;;10.85;1.77;;;;;;;24.39;42.13;101190.69;2097651;28;20139;-75
2022/10/02 00:07:47;;;;;;;12.45;1.85;;;;;;;24.40;42.25;101187.06;2095850;28;20050;-75
2022/10/02 00:09:16;;;;;;;13.27;2.22;;;;;;;24.45;42.00;101187.78;2096854;28;20109;-75
2022/10/02 00:10:46;;;;;;;15.82;2.25;;;;;;;24.48;41.80;101189.50;2104151;28;20044;-75
2022/10/02 00:12:12;;;;;;;11.77;2.05;;;;;;;24.49;41.81;101178.63;2097559;28;20136;-74
2022/10/02 00:13:38;;;;;;;14.20;2.50;;;;;;;24.54;41.84;101183.88;2092902;28;20109;-75
2022/10/02 00:15:06;;;;;;;12.63;2.67;;;;;;;24.66;41.39;101179.88;2100196;28;20092;-75
2022/10/02 00:16:33;;;;;;;9.68;1.67;;;;;;;24.81;40.81;101179.31;2096639;28;20093;-74
2022/10/02 00:18:01;;;;;;;12.02;2.00;;;;;;;24.94;40.32;101172.56;2102062;28;20064;-75
2022/10/02 00:19:24;;;;;;;13.48;2.30;;;;;;;25.02;40.17;101173.13;2087390;28;20518;-75
2022/10/02 00:21:04;;;;;;;20.50;4.00;;;;;;;25.06;39.90;101169.41;2092470;28;20167;-75
2022/10/02 00:22:51;;;;;;;21.15;3.00;;;;;;;25.10;40.08;101171.03;2097269;28;20097;-75
2022/10/02 00:24:18;;;;;;;13.02;2.00;;;;;;;25.10;40.02;101164.75;2104130;28;20455;-74
2022/10/02 00:25:45;;;;;;;10.60;1.75;;;;;;;25.08;40.16;101167.50;2097521;28;20029;-75
2022/10/02 00:27:27;;;;;;;14.43;2.10;;;;;;;25.09;40.32;101160.28;2103715;28;20048;-75
2022/10/02 00:28:56;;;;;;;;;;;;;;;25.07;40.42;101152.25;2106232;28;20139;-75
2022/10/02 00:30:18;;;;;;;8.30;1.80;;;;;;;25.07;40.43;101149.53;2103547;28;20170;-73
2022/10/02 00:31:50;;;;;;;15.43;2.67;;;;;;;25.07;40.44;101148.66;2101653;28;20869;-75
2022/10/02 00:33:26;;;;;;;13.98;1.70;;;;;;;25.05;40.33;101145.13;2111380;28;20158;-75
2022/10/02 00:35:04;;;;;;;14.35;2.05;;;;;;;25.00;40.63;101134.50;2110274;28;20078;-75
2022/10/02 00:36:39;;;;;;;21.40;2.67;;;;;;;24.95;40.32;101131.97;2114008;28;20051;-75
2022/10/02 00:38:13;;;;;;;16.95;2.00;;;;;;;24.96;40.45;101131.03;2095537;28;20097;-75
2022/10/02 00:39:51;;;;;;;11.95;2.10;;;;;;;24.94;40.68;101132.88;2098205;28;20135;-75
2022/10/02 00:41:55;;;;;;;13.30;2.13;;;;;;;24.90;40.61;101127.66;2091965;28;20378;-75
2022/10/02 00:43:27;;;;;;;10.13;1.85;;;;;;;24.82;41.07;101129.75;2105595;28;20090;-76
2022/10/02 00:45:16;;;;;;;15.95;2.97;;;;;;;24.71;41.71;101124.75;2105537;28;20052;-75
2022/10/02 00:46:45;;;;;;;15.00;2.15;;;;;;;24.63;41.81;101126.84;2121555;27;20046;-75
2022/10/02 00:48:24;;;;;;;16.48;2.72;;;;;;;24.60;42.32;101125.16;2099845;28;20041;-75
2022/10/02 00:49:59;;;;;;;9.88;1.85;;;;;;;24.55;42.56;101126.22;2112894;28;20056;-75
2022/10/02 00:51:42;;;;;;;12.43;1.83;;;;;;;24.50;42.41;101129.09;2104406;28;20044;-75
2022/10/02 00:53:15;;;;;;;16.17;3.33;;;;;;;24.53;42.39;101129.00;2108680;28;20047;-76
2022/10/02 00:55:08;;;;;;;17.27;2.38;;;;;;;24.63;42.17;101122.31;2088963;28;20044;-75
2022/10/02 00:56:40;;;;;;;16.52;2.65;;;;;;;24.69;41.76;101125.72;2097201;28;20033;-75
2022/10/02 00:58:28;;;;;;;16.15;2.60;;;;;;;24.71;41.64;101124.75;2102738;28;20048;-75
2022/10/02 01:00:02;;;;;;;18.05;3.28;;;;;;;24.73;41.13;101117.47;2114180;28;20098;-75
2022/10/02 01:01:29;;;;;;;17.27;2.65;;;;;;;24.82;40.76;101121.63;2102078;28;20094;-75
2022/10/02 01:03:00;;;;;;;21.63;2.85;;;;;;;24.90;40.55;101117.75;2101556;28;20143;-75
2022/10/02 01:04:30;;;;;;;15.13;2.95;;;;;;;25.01;39.81;101117.31;2093886;28;20052;-75
2022/10/02 01:05:53;;;;;;;17.65;3.33;;;;;;;25.12;39.81;101116.94;2107428;28;20082;-75
2022/10/02 01:07:15;;;;;;;15.02;2.45;;;;;;;25.17;39.37;101117.63;2095191;28;20044;-75
2022/10/02 01:08:38;;;;;;;20.25;3.47;;;;;;;25.23;39.31;101110.16;2109718;27;20139;-75
2022/10/02 01:10:01;;;;;;;21.15;3.38;;;;;;;25.21;39.55;101112.03;2096893;28;20433;-75
2022/10/02 01:11:26;;;;;;;16.00;2.88;;;;;;;25.18;39.62;101109.47;2108827;28;20514;-75
2022/10/02 01:12:49;;;;;;;20.85;2.78;;;;;;;25.12;39.97;101101.59;2109722;28;20044;-74
2022/10/02 01:14:12;;;;;;;14.73;2.03;;;;;;;25.08;39.73;101099.94;2108845;28;20043;-75
2022/10/02 01:15:37;;;;;;;11.68;2.00;;;;;;;25.02;39.94;101094.78;2102540;28;20036;-75
2022/10/02 01:16:59;;;;;;;12.07;2.15;;;;;;;25.01;40.11;101095.72;2101061;28;20277;-75
2022/10/02 01:18:22;;;;;;;16.17;2.60;;;;;;;25.02;40.24;101094.78;2103451;28;20564;-75
2022/10/02 01:19:44;;;;;;;13.98;2.10;;;;;;;24.99;40.07;101092.22;2112303;28;20135;-75
2022/10/02 01:21:14;;;;;;;14.32;2.05;;;;;;;24.97;40.10;101089.56;2112148;27;20055;-75
2022/10/02 01:22:42;;;;;;;16.17;2.17;;;;;;;24.97;40.33;101086.84;2103846;28;20143;-75
2022/10/02 01:24:15;;;;;;;13.57;2.20;;;;;;;24.97;40.54;101096.78;2110527;27;20467;-75
2022/10/02 01:25:40;;;;;;;15.18;2.42;;;;;;;24.92;40.79;101090.69;2108549;28;20601;-75
2022/10/02 01:27:02;;;;;;;11.57;3.33;;;;;;;24.87;40.92;101096.25;2111799;27;20105;-75
2022/10/02 01:28:24;;;;;;;13.45;2.03;;;;;;;24.84;41.08;101087.34;2105317;28;20578;-74
2022/10/02 01:29:48;;;;;;;;;;;;;;;24.78;41.10;101091.16;2117264;27;20494;-75
2022/10/02 01:31:12;;;;;;;17.60;2.95;;;;;;;24.77;41.12;101078.59;2103540;28;19951;-75
2022/10/02 01:32:38;;;;;;;18.80;2.65;;;;;;;24.77;40.72;101091.22;2103580;28;20425;-75
2022/10/02 01:34:00;;;;;;;14.02;2.28;;;;;;;24.74;40.78;101078.75;2109275;28;20134;-75
2022/10/02 01:35:25;;;;;;;12.70;2.40;;;;;;;24.73;41.01;101081.47;2115125;27;20044;-75
2022/10/02 01:36:48;;;;;;;19.50;2.42;;;;;;;24.73;40.82;101082.38;2103900;28;20062;-75
2022/10/02 01:38:13;;;;;;;16.27;4.32;;;;;;;24.75;40.97;101079.59;2103423;28;20101;-75
2022/10/02 01:39:35;;;;;;;10.75;2.40;;;;;;;24.76;40.67;101084.94;2103383;28;20044;-75
2022/10/02 01:40:59;;;;;;;17.45;2.05;;;;;;;24.78;40.58;101071.38;2109849;28;20054;-75
2022/10/02 01:42:21;;;;;;;14.20;2.20;;;;;;;24.77;40.80;101080.41;2109266;28;20613;-75
2022/10/02 01:43:48;;;;;;;15.30;2.58;;;;;;;24.80;40.79;101078.50;2108425;28;20043;-76
2022/10/02 01:45:10;;;;;;;12.45;2.13;;;;;;;24.80;40.77;101075.78;2111477;28;20146;-75
2022/10/02 01:46:36;;;;;;;13.07;2.63;;;;;;;24.83;40.38;101075.66;2105162;28;20054;-75
2022/10/02 01:48:02;;;;;;;11.20;1.52;;;;;;;24.84;40.61;101072.03;2103234;28;20048;-75
2022/10/02 01:49:42;;;;;;;13.50;3.40;;;;;;;24.89;40.25;101079.94;2098465;28;20036;-75
2022/10/02 01:51:30;;;;;;;19.45;3.05;;;;;;;24.88;40.13;101080.88;2111573;28;20066;-75
2022/10/02 01:53:00;;;;;;;19.27;2.10;;;;;;;24.84;40.33;101080.13;2119652;27;20031;-75
2022/10/02 01:54:34;;;;;;;11.82;2.13;;;;;;;24.82;40.47;101081.13;2116762;27;20410;-75
2022/10/02 01:56:09;;;;;;;15.85;2.70;;;;;;;24.78;40.76;101079.47;2104435;28;20108;-74
2022/10/02 01:57:42;;;;;;;13.88;3.00;;;;;;;24.76;40.91;101075.94;2103695;28;20083;-75
2022/10/02 01:59:16;;;;;;;17.42;1.95;;;;;;;24.71;41.08;101076.13;2117557;27;20130;-75
2022/10/02 02:00:49;;;;;;;18.73;2.53;;;;;;;24.68;41.24;101075.38;2103964;28;20040;-76
2022/10/02 02:02:23;;;;;;;12.13;2.35;;;;;;;24.63;41.19;101081.81;2103309;28;20046;-76
2022/10/02 02:03:53;;;;;;;15.68;2.78;;;;;;;24.63;40.84;101070.13;2089218;28;20041;-77
2022/10/02 02:05:26;;;;;;;17.15;2.20;;;;;;;24.65;40.86;101070.09;2100740;28;20086;-76
2022/10/02 02:06:56;;;;;;;16.02;2.30;;;;;;;24.68;40.63;101068.13;2119626;27;20329;-76
2022/10/02 02:08:27;;;;;;;17.13;2.83;;;;;;;24.70;40.32;101066.25;2104992;28;20040;-77
2022/10/02 02:09:58;;;;;;;16.07;2.00;;;;;;;24.69;40.27;101059.09;2119248;27;20078;-77
2022/10/02 02:11:23;;;;;;;12.90;2.50;;;;;;;24.69;40.64;101064.50;2101569;28;20951;-77
2022/10/02 02:12:50;;;;;;;13.05;2.05;;;;;;;24.68;40.29;101061.88;2099633;28;20048;-77
2022/10/02 02:14:16;;;;;;;18.80;2.30;;;;;;;24.70;40.30;101057.28;2105199;28;20603;-76
2022/10/02 02:15:43;;;;;;;15.23;2.08;;;;;;;24.72;40.52;101053.59;2109380;28;20403;-76
2022/10/02 02:17:12;;;;;;;15.57;2.05;;;;;;;24.75;40.42;101052.56;2111532;28;20054;-76
2022/10/02 02:18:42;;;;;;;17.92;2.33;;;;;;;24.77;40.02;101050.72;2108611;28;20138;-76
2022/10/02 02:20:10;;;;;;;19.40;3.10;;;;;;;24.78;40.29;101052.47;2103831;28;20079;-76
2022/10/02 02:21:35;;;;;;;17.52;2.03;;;;;;;24.78;40.29;101042.56;2100148;28;20139;-76
2022/10/02 02:23:04;;;;;;;13.98;2.40;;;;;;;24.77;40.39;101039.91;2107227;28;20100;-77
2022/10/02 02:24:31;;;;;;;13.38;2.03;;;;;;;24.74;40.42;101043.63;2111390;28;20039;-78
2022/10/02 02:25:59;;;;;;;16.02;2.67;;;;;;;24.70;40.37;101039.25;2109807;28;20103;-77
2022/10/02 02:27:27;;;;;;;11.50;1.88;;;;;;;24.70;40.43;101039.25;2103172;28;20040;-77
2022/10/02 02:28:53;;;;;;;15.27;1.95;;;;;;;24.72;40.46;101031.09;2107052;28;20055;-77
2022/10/02 02:30:16;;;;;;;10.98;1.75;;;;;;;24.73;40.37;101028.34;2096782;28;20041;-76
2022/10/02 02:31:43;;;;;;;14.52;2.97;;;;;;;24.76;40.18;101025.53;2101878;28;20089;-77
2022/10/02 02:33:09;;;;;;;9.13;1.88;;;;;;;24.76;40.04;101019.22;2115297;27;20050;-76
2022/10/02 02:34:37;;;;;;;13.65;2.15;;;;;;;24.76;40.22;101016.53;2097610;28;20118;-77
2022/10/02 02:36:03;;;;;;;14.75;2.33;;;;;;;24.77;39.96;101015.59;2111583;28;20047;-77
2022/10/02 02:37:30;;;;;;;14.90;1.90;;;;;;;24.75;40.14;101012.94;2109892;28;20043;-77
2022/10/02 02:38:59;;;;;;;11.88;2.65;;;;;;;24.74;40.22;101007.63;2105817;28;20036;-76
2022/10/02 02:40:27;;;;;;;13.07;1.90;;;;;;;24.76;40.17;101011.13;2103100;28;20052;-75
2022/10/02 02:41:54;;;;;;;17.60;2.28;;;;;;;24.75;40.26;101015.66;2093574;28;20343;-76
2022/10/02 02:43:24;;;;;;;10.30;3.13;;;;;;;24.74;39.96;101002.22;2115829;27;20519;-77
2022/10/02 02:44:49;;;;;;;13.88;1.60;;;;;;;24.74;40.03;101007.63;2112968;28;20044;-75
2022/10/02 02:46:20;;;;;;;11.68;1.77;;;;;;;24.72;40.33;101004.09;2099631;28;20075;-75
2022/10/02 02:47:48;;;;;;;11.93;2.97;;;;;;;24.72;40.44;101004.09;2101078;28;20135;-75
2022/10/02 02:49:12;;;;;;;13.20;2.22;;;;;;;24.70;40.34;100997.88;2094274;28;20045;-75
2022/10/02 02:50:42;;;;;;;16.35;2.38;;;;;;;24.69;40.58;100993.41;2099390;28;20040;-75
2022/10/02 02:52:08;;;;;;;17.88;2.10;;;;;;;24.73;40.44;100990.56;2108207;28;20040;-75
2022/10/02 02:53:36;;;;;;;15.80;2.08;;;;;;;24.76;40.52;100993.09;2091310;28;20049;-75
2022/10/02 02:55:07;;;;;;;19.67;2.70;;;;;;;24.84;40.14;100984.72;2107754;28;20095;-75
2022/10/02 02:56:32;;;;;;;10.15;1.73;;;;;;;24.95;39.83;100987.88;2102850;28;20135;-75
2022/10/02 02:57:58;;;;;;;14.48;2.10;;;;;;;25.08;39.53;100985.56;2086750;28;20063;-75
2022/10/02 02:59:26;;;;;;;11.90;2.60;;;;;;;25.18;39.67;100979.75;2109351;28;20134;-74
2022/10/02 03:00:48;;;;;;;12.25;2.10;;;;;;;25.26;39.25;100982.13;2104422;28;20044;-75
2022/10/02 03:02:11;;;;;;;16.75;2.35;;;;;;;25.37;39.01;100978.03;2105491;28;20068;-75
2022/10/02 03:03:33;;;;;;;11.35;1.67;;;;;;;25.52;38.72;100979.22;2101804;28;20106;-75
2022/10/02 03:04:55;;;;;;;15.88;1.98;;;;;;;25.67;38.41;100978.56;2098909;28;20491;-75
2022/10/02 03:06:30;;;;;;;8.10;1.85;;;;;;;25.84;38.19;100976.97;2105310;28;20039;-75
2022/10/02 03:07:55;;;;;;;11.07;1.50;;;;;;;25.94;37.82;100976.47;2101986;28;20052;-75
2022/10/02 03:09:21;;;;;;;8.93;1.40;;;;;;;26.02;37.98;100968.03;2093762;28;20037;-75
2022/10/02 03:10:55;;;;;;;18.70;2.20;;;;;;;26.11;37.46;100968.50;2101109;28;20187;-75
2022/10/02 03:12:32;;;;;;;16.38;2.70;;;;;;;26.22;37.28;100972.53;2112038;28;20084;-75
2022/10/02 03:14:01;;;;;;;14.73;2.15;;;;;;;26.29;36.98;100971.34;2111714;28;20135;-75
2022/10/02 03:15:31;;;;;;;9.95;1.88;;;;;;;26.40;36.98;100977.13;2096095;28;20045;-74
2022/10/02 03:17:06;;;;;;;10.90;1.30;;;;;;;26.47;36.75;100970.47;2096017;28;20052;-75
2022/10/02 03:18:53;;;;;;;15.57;2.15;;;;;;;26.57;36.45;100970.00;2099002;28;20044;-74
2022/10/02 03:20:23;;;;;;;10.23;1.65;;;;;;;26.68;36.26;100961.34;2097652;28;20114;-75
2022/10/02 03:21:57;;;;;;;12.70;1.77;;;;;;;26.78;35.89;100962.63;2087968;28;20041;-75
2022/10/02 03:23:26;;;;;;;8.05;1.77;;;;;;;26.87;36.05;100958.63;2095867;28;20419;-75
2022/10/02 03:24:52;;;;;;;17.27;1.88;;;;;;;26.93;35.62;100959.22;2089931;28;20559;-75
2022/10/02 03:26:20;;;;;;;12.68;2.28;;;;;;;27.00;35.54;100958.94;2106942;27;20051;-75
2022/10/02 03:27:49;;;;;;;9.50;1.83;;;;;;;27.00;35.73;100957.09;2096566;28;20048;-75
2022/10/02 03:29:18;;;;;;;12.60;1.58;;;;;;;26.98;35.65;100953.56;2109420;28;20047;-75
2022/10/02 03:30:42;;;;;;;13.65;2.15;;;;;;;26.95;35.67;100953.75;2098887;28;20135;-75
2022/10/02 03:32:07;;;;;;;20.00;3.30;;;;;;;26.94;35.73;100951.97;2103573;28;20079;-75
2022/10/02 03:33:33;;;;;;;11.30;2.53;;;;;;;26.95;35.67;100943.78;2109300;28;20448;-75
2022/10/02 03:34:57;;;;;;;8.50;1.45;;;;;;;26.98;35.63;100940.91;2104320;28;20044;-74
2022/10/02 03:36:20;;;;;;;23.20;2.38;;;;;;;27.00;35.65;100942.66;2103508;28;20516;-75
2022/10/02 03:37:46;;;;;;;11.68;1.75;;;;;;;26.98;35.71;100942.72;2114076;27;20462;-74
2022/10/02 03:39:10;;;;;;;13.23;1.95;;;;;;;26.93;35.71;100940.25;2112235;27;20417;-75
2022/10/02 03:40:31;;;;;;;8.85;1.40;;;;;;;26.89;35.83;100937.78;2103430;28;20083;-75
2022/10/02 03:41:55;;;;;;;9.90;1.83;;;;;;;26.86;35.99;100941.47;2103003;28;20545;-75
2022/10/02 03:43:20;;;;;;;14.55;1.88;;;;;;;26.87;35.82;100939.66;2097338;28;20051;-75
2022/10/02 03:44:44;;;;;;;9.02;1.45;;;;;;;26.87;35.65;100940.53;2112054;28;20055;-75
2022/10/02 03:46:07;;;;;;;11.85;1.90;;;;;;;26.93;35.68;100942.09;2103266;28;20048;-74
2022/10/02 03:47:29;;;;;;;9.85;1.48;;;;;;;26.95;35.67;100941.06;2111261;28;20099;-75
2022/10/02 03:48:55;;;;;;;9.60;1.70;;;;;;;26.98;35.57;100948.16;2104439;28;20287;-74
2022/10/02 03:50:16;;;;;;;7.25;1.10;;;;;;;27.05;35.27;100948.72;2101086;28;20106;-75
2022/10/02 03:51:39;;;;;;;11.68;1.48;;;;;;;27.12;35.35;100936.63;2100479;28;20052;-75
2022/10/02 03:53:02;;;;;;;7.35;2.22;;;;;;;27.16;35.12;100944.56;2093967;28;20120;-75
2022/10/02 03:54:25;;;;;;;16.98;1.92;;;;;;;27.19;35.05;100947.09;2099337;28;20040;-75
2022/10/02 03:55:51;;;;;;;12.35;1.88;;;;;;;27.20;35.08;100942.56;2110679;27;20056;-75
2022/10/02 03:57:20;;;;;;;11.40;2.05;;;;;;;27.18;35.07;100939.91;2105800;28;20150;-75
2022/10/02 03:58:46;;;;;;;12.00;1.73;;;;;;;27.12;34.95;100929.38;2105165;27;20056;-75
2022/10/02 04:00:13;;;;;;;9.05;1.73;;;;;;;27.08;35.31;100933.22;2109592;28;20060;-75
2022/10/02 04:01:41;;;;;;;12.20;2.30;;;;;;;27.04;35.35;100922.59;2094856;28;20036;-75
2022/10/02 04:03:08;;;;;;;16.33;1.92;;;;;;;26.98;35.64;100909.34;2095313;28;20036;-75
2022/10/02 04:04:39;;;;;;;17.42;2.60;;;;;;;26.93;35.67;100907.75;2111616;28;20055;-75
2022/10/02 04:06:06;;;;;;;8.25;1.77;;;;;;;26.93;35.57;100907.75;2101078;28;20542;-75
2022/10/02 04:07:34;;;;;;;14.15;2.78;;;;;;;27.03;35.23;100902.75;2106172;28;20174;-75
2022/10/02 04:09:02;;;;;;;8.85;2.00;;;;;;;27.13;35.10;100904.03;2106510;28;20484;-75
2022/10/02 04:10:36;;;;;;;11.70;2.58;;;;;;;27.25;34.78;100894.38;2106961;28;20446;-75
2022/10/02 04:12:03;;;;;;;11.52;2.05;;;;;;;27.34;34.70;100893.91;2097348;28;20546;-75
2022/10/02 04:13:30;;;;;;;17.52;2.08;;;;;;;27.42;34.48;100899.84;2093603;28;20226;-74
2022/10/02 04:14:56;;;;;;;8.43;1.25;;;;;;;27.50;34.35;100905.75;2098216;28;20040;-74
2022/10/02 04:16:24;;;;;;;13.75;1.80;;;;;;;27.59;34.29;100899.84;2093019;28;20101;-75
2022/10/02 04:17:52;;;;;;;13.88;1.95;;;;;;;27.66;34.01;100903.13;2112411;28;20624;-76
2022/10/02 04:19:22;;;;;;;9.35;1.80;;;;;;;27.71;33.77;100901.91;2106584;28;20163;-75
2022/10/02 04:20:50;;;;;;;13.60;1.65;;;;;;;27.76;33.90;100902.53;2103805;28;20486;-75
2022/10/02 04:22:28;;;;;;;10.85;1.50;;;;;;;27.82;33.67;100905.91;2108379;28;20048;-75
2022/10/02 04:23:56;;;;;;;18.90;1.73;;;;;;;27.85;33.63;100894.88;2110613;28;20055;-75
2022/10/02 04:25:23;;;;;;;9.60;1.67;;;;;;;27.90;33.56;100895.50;2089473;28;20147;-75
2022/10/02 04:26:59;;;;;;;15.35;1.60;;;;;;;27.93;33.41;100896.22;2097890;28;20044;-75
2022/10/02 04:28:24;;;;;;;17.00;3.40;;;;;;;27.96;33.36;100900.63;2104570;28;20048;-76
2022/10/02 04:29:51;;;;;;;11.75;2.33;;;;;;;27.95;33.50;100898.84;2088580;28;20057;-75
2022/10/02 04:31:13;;;;;;;8.20;1.85;;;;;;;27.94;33.41;100894.38;2101169;28;20101;-75
2022/10/02 04:32:37;;;;;;;15.55;1.90;;;;;;;27.94;33.49;100892.53;2102972;28;20047;-75
2022/10/02 04:34:03;;;;;;;13.75;2.60;;;;;;;27.97;33.56;100891.47;2108412;28;20481;-76
2022/10/02 04:35:31;;;;;;;8.27;1.85;;;;;;;27.97;33.48;100878.78;2108512;28;20133;-76
2022/10/02 04:37:11;;;;;;;9.82;1.60;;;;;;;28.04;33.33;100882.94;2109570;28;20067;-75
2022/10/02 04:39:00;;;;;;;13.15;1.98;;;;;;;28.09;33.44;100888.13;2107364;28;20051;-75
2022/10/02 04:40:33;;;;;;;10.80;2.10;;;;;;;28.08;33.44;100881.81;2102648;28;20599;-76
2022/10/02 04:42:13;;;;;;;9.48;1.63;;;;;;;28.07;33.62;100882.78;2101001;28;20044;-75
2022/10/02 04:43:50;;;;;;;8.15;1.60;;;;;;;28.09;33.75;100878.09;2110759;28;20044;-75
2022/10/02 04:45:33;;;;;;;10.73;1.65;;;;;;;28.10;33.94;100870.84;2088812;28;20049;-75
2022/10/02 04:47:09;;;;;;;15.35;1.77;;;;;;;28.14;34.13;100867.06;2102774;28;20395;-75
2022/10/02 04:48:54;;;;;;;8.95;1.83;;;;;;;28.19;34.25;100885.78;2112157;28;20055;-76
2022/10/02 04:50:32;;;;;;;11.63;1.88;;;;;;;28.25;34.43;100875.47;2096522;28;20044;-75
2022/10/02 04:52:15;;;;;;;17.23;2.78;;;;;;;28.31;34.51;100877.84;2104812;28;20074;-75
2022/10/02 04:53:51;;;;;;;5.45;2.22;;;;;;;28.37;34.61;100877.50;2096733;28;20044;-75
2022/10/02 04:55:34;;;;;;;9.90;1.52;;;;;;;28.45;34.64;100872.50;2099993;28;20051;-75
2022/10/02 04:57:10;;;;;;;11.63;2.92;;;;;;;28.51;34.63;100864.00;2087445;28;20057;-75
2022/10/02 04:58:58;;;;;;;12.27;2.03;;;;;;;28.63;34.67;100869.69;2101424;28;20051;-75
2022/10/02 05:00:23;;;;;;;14.35;3.22;;;;;;;28.70;34.61;100876.53;2110664;28;20421;-75
2022/10/02 05:02:02;;;;;;;19.23;2.38;;;;;;;28.74;34.44;100869.97;2099214;28;20572;-74
2022/10/02 05:03:36;;;;;;;17.02;2.13;;;;;;;28.77;34.25;100876.13;2103617;28;20032;-75
2022/10/02 05:05:11;;;;;;;18.00;3.63;;;;;;;28.83;34.08;100867.59;2094585;28;20084;-75
2022/10/02 05:06:55;;;;;;;9.82;2.40;;;;;;;28.94;34.05;100869.72;2102612;28;20093;-75
2022/10/02 05:08:36;;;;;;;13.75;2.47;;;;;;;29.05;34.05;100866.34;2105240;28;20435;-75
2022/10/02 05:10:06;;;;;;;11.10;2.13;;;;;;;29.12;34.01;100868.63;2104776;28;20410;-75
2022/10/02 05:11:58;;;;;;;10.45;1.70;;;;;;;29.22;33.82;100863.50;2094139;28;20384;-75
2022/10/02 05:13:40;;;;;;;17.80;2.38;;;;;;;29.32;33.75;100865.56;2104268;28;20138;-75
2022/10/02 05:15:20;;;;;;;19.38;2.53;;;;;;;29.44;33.27;100876.72;2106681;28;21813;-74
2022/10/02 05:17:19;;;;;;;12.27;2.58;;;;;;;29.57;33.01;100869.53;2113356;28;20546;-76
2022/10/02 05:19:06;;;;;;;16.23;2.67;;;;;;;29.71;32.78;100883.19;2081937;28;20659;-75
2022/10/02 05:21:03;;;;;;;15.70;1.95;;;;;;;29.82;32.63;100886.09;2089756;28;20140;-75
2022/10/02 05:22:45;;;;;;;10.80;3.05;;;;;;;29.94;32.51;100889.94;2105006;28;20048;-77
2022/10/02 05:24:26;;;;;;;17.90;3.30;;;;;;;30.07;31.97;100899.97;2096385;28;20045;-76
2022/10/02 05:26:14;;;;;;;18.98;3.10;;;;;;;30.22;32.01;100895.38;2102831;28;20152;-77
2022/10/02 05:28:04;;;;;;;16.95;3.10;;;;;;;30.35;31.41;100901.81;2105210;28;20044;-77
2022/10/02 05:29:48;;;;;;;14.98;2.97;;;;;;;30.52;31.38;100898.03;2096678;28;20044;-77
2022/10/02 05:31:26;;;;;;;15.20;2.92;;;;;;;30.66;30.95;100902.56;2099955;28;20552;-76
2022/10/02 05:33:16;;;;;;;17.02;1.80;;;;;;;30.80;30.89;100906.13;2093869;28;20147;-77
2022/10/02 05:34:54;;;;;;;16.75;2.78;;;;;;;30.92;30.79;100898.97;2102904;28;20550;-76
2022/10/02 05:36:30;;;;;;;16.75;2.85;;;;;;;31.08;30.45;100888.81;2104307;28;20040;-75
2022/10/02 05:38:05;;;;;;;18.25;3.13;;;;;;;31.22;30.25;100886.03;2103843;28;20044;-76
2022/10/02 05:39:33;;;;;;;18.75;2.25;;;;;;;31.37;30.23;100885.97;2103139;28;20043;-75
2022/10/02 05:41:01;;;;;;;24.40;3.65;;;;;;;31.51;29.76;100922.22;2100104;28;20056;-75
2022/10/02 05:42:31;;;;;;;24.67;4.20;;;;;;;31.66;29.62;100923.06;2086787;28;20041;-75
2022/10/02 05:44:01;;;;;;;24.05;3.95;;;;;;;31.81;29.75;100934.78;2092015;28;20133;-76
2022/10/02 05:45:28;;;;;;;23.23;3.63;;;;;;;31.92;29.60;100949.41;2095014;28;20055;-75
2022/10/02 05:47:00;;;;;;;20.67;2.97;;;;;;;32.03;29.87;100954.16;2094242;28;20178;-75
2022/10/02 05:48:26;;;;;;;18.13;2.80;;;;;;;32.05;29.93;100957.63;2087466;28;20497;-76
2022/10/02 05:49:56;;;;;;;21.45;3.45;;;;;;;32.02;30.28;100966.06;2101189;28;20077;-75
2022/10/02 05:51:22;;;;;;;18.60;2.65;;;;;;;31.97;30.76;100971.81;2099684;28;20608;-75
2022/10/02 05:52:51;;;;;;;18.88;3.03;;;;;;;31.92;30.49;100971.28;2103171;28;20046;-75
2022/10/02 05:54:25;;;;;;;25.85;4.18;;;;;;;31.90;30.52;100966.94;2096732;28;20080;-75
2022/10/02 05:55:52;;;;;;;28.27;3.70;;;;;;;31.87;30.38;100972.59;2095483;28;20415;-75
2022/10/02 05:57:26;;;;;;;15.23;3.00;;;;;;;31.86;30.73;100976.28;2094509;28;20125;-75
2022/10/02 05:58:54;;;;;;;24.77;4.43;;;;;;;31.82;30.95;100961.13;2095570;28;20040;-75
2022/10/02 06:00:26;;;;;;;24.38;3.47;;;;;;;31.75;31.48;100970.72;2103200;28;20063;-75
2022/10/02 06:01:50;;;;;;;32.95;3.55;;;;;;;31.70;31.78;100967.44;2088186;28;20083;-75
2022/10/02 06:03:19;;;;;;;26.13;3.83;;;;;;;31.67;32.29;100979.44;2100363;28;20056;-76
2022/10/02 06:04:46;;;;;;;29.90;3.83;;;;;;;31.62;32.54;100985.22;2088515;28;20497;-76
2022/10/02 06:06:15;;;;;;;23.33;2.83;;;;;;;31.55;32.78;100983.84;2102984;28;20118;-75
2022/10/02 06:07:37;;;;;;;19.38;3.58;;;;;;;31.48;33.32;100987.97;2096491;28;20032;-76
2022/10/02 06:09:04;;;;;;;31.90;3.75;;;;;;;31.40;34.13;100986.72;2108390;28;20040;-76
2022/10/02 06:10:33;;;;;;;24.25;3.90;;;;;;;31.30;34.74;100977.44;2105093;28;20143;-76
2022/10/02 06:12:00;;;;;;;28.52;3.70;;;;;;;31.22;35.31;100988.84;2102911;28;20055;-76
2022/10/02 06:13:30;;;;;;;26.02;4.05;;;;;;;31.15;35.83;100995.69;2103061;28;20052;-76
2022/10/02 06:14:58;;;;;;;21.05;3.55;;;;;;;31.09;36.46;100996.97;2103171;28;20560;-76
2022/10/02 06:16:24;;;;;;;29.17;4.28;;;;;;;31.06;36.77;101012.66;2096566;28;20036;-75
2022/10/02 06:17:53;;;;;;;39.88;5.00;;;;;;;30.99;37.25;101014.00;2085773;28;20045;-76
2022/10/02 06:19:20;;;;;;;33.38;4.30;;;;;;;30.94;37.51;101022.50;2094443;28;20048;-75
2022/10/02 06:20:51;;;;;;;26.83;3.80;;;;;;;30.92;38.05;101032.63;2094612;28;20525;-75
2022/10/02 06:22:17;;;;;;;27.52;4.00;;;;;;;30.87;38.34;101035.66;2094970;28;20079;-75
2022/10/02 06:23:43;;;;;;;24.05;3.65;;;;;;;30.83;39.03;101030.50;2094708;28;20082;-76
2022/10/02 06:25:13;;;;;;;25.08;3.80;;;;;;;30.81;39.71;101022.41;2102531;28;20108;-75
2022/10/02 06:26:44;;;;;;;25.35;4.10;;;;;;;30.82;39.90;101024.16;2102668;28;20081;-75
2022/10/02 06:28:14;;;;;;;25.38;3.47;;;;;;;30.83;40.78;101034.09;2098204;28;20490;-75
2022/10/02 06:29:42;;;;;;;30.98;4.35;;;;;;;30.87;41.17;101040.22;2105046;28;20048;-75
2022/10/02 06:31:14;;;;;;;21.42;3.53;;;;;;;30.91;41.78;101043.66;2098468;28;20093;-75
2022/10/02 06:32:38;;;;;;;;;;;;;;;30.96;41.97;101038.75;2105491;28;20071;-75
2022/10/02 06:34:00;;;;;;;21.00;5.72;;;;;;;31.09;41.90;101037.91;2098872;28;19998;-75
2022/10/02 06:35:41;;;;;;;24.95;4.70;;;;;;;31.25;42.59;101030.44;2101944;28;20048;-75
2022/10/02 06:37:22;;;;;;;20.92;4.85;;;;;;;31.46;42.21;101039.06;2096398;28;20412;-75
2022/10/02 06:39:04;;;;;;;25.17;3.97;;;;;;;31.64;42.66;101036.97;2104821;28;20047;-76
2022/10/02 06:40:45;;;;;;;31.55;4.85;;;;;;;31.81;42.61;101042.19;2096606;28;20032;-76
2022/10/02 06:42:27;;;;;;;37.92;4.20;;;;;;;32.00;42.47;101034.47;2104260;28;20565;-75
2022/10/02 06:44:09;;;;;;;32.30;4.47;;;;;;;32.22;42.27;101035.72;2096246;28;20053;-75
2022/10/02 06:45:45;;;;;;;38.08;5.40;;;;;;;32.27;42.51;101045.34;2096184;28;20053;-75
2022/10/02 06:47:22;;;;;;;24.55;3.70;;;;;;;32.20;42.51;101046.75;2104063;28;20404;-76
2022/10/02 06:48:53;;;;;;;39.25;5.18;;;;;;;32.05;42.67;101048.66;2096694;28;20416;-75
2022/10/02 06:50:29;;;;;;;30.13;4.68;;;;;;;31.89;43.42;101047.13;2094474;28;20490;-75
2022/10/02 06:52:03;;;;;;;27.77;4.20;;;;;;;31.81;43.83;101057.69;2087412;28;20421;-76
2022/10/02 06:53:46;;;;;;;28.25;3.95;;;;;;;31.72;44.36;101056.44;2101198;28;20044;-75
2022/10/02 06:55:27;;;;;;;29.17;3.75;;;;;;;31.59;44.76;101052.75;2096581;28;20049;-76
2022/10/02 06:57:14;;;;;;;37.13;5.97;;;;;;;31.52;45.80;101043.22;2102305;28;20120;-76
2022/10/02 06:58:59;;;;;;;26.45;4.97;;;;;;;31.52;46.58;101044.09;2096499;28;20037;-76